Time;durP1;ratioP1;P1;durP2;ratioP2;P2;SDS_P1;SDS_P2;PMS_P1;PMS_P2;Temp;Humidity;BMP_temperature;BMP_pressure;BME280_temperature;BME280_humidity;BME280_pressure;Samples;Min_cycle;Max_cycle;Signal;HPM_P1;HPM_P2
2021/07/13 00:00:34;;;;;;;20.23;14.95;;;;;;;19.86;65.49;100368.71;1684331;82;25838;-72
2021/07/13 00:03:03;;;;;;;22.85;14.53;;;;;;;19.85;65.86;100382.45;1676352;83;26149;-72
2021/07/13 00:05:30;;;;;;;18.37;14.47;;;;;;;19.82;66.03;100384.07;1674252;83;25786;-72
2021/07/13 00:07:57;;;;;;;20.02;15.88;;;;;;;19.79;66.10;100371.59;1684578;83;27577;-72
2021/07/13 00:10:28;;;;;;;21.57;14.68;;;;;;;19.76;66.16;100374.58;1678006;82;25826;-72
2021/07/13 00:12:57;;;;;;;19.90;15.40;;;;;;;19.72;66.34;100376.70;1686935;83;25813;-72
2021/07/13 00:15:34;;;;;;;20.32;15.13;;;;;;;19.70;66.40;100369.17;1678059;83;26167;-72
2021/07/13 00:18:03;;;;;;;21.57;15.98;;;;;;;19.68;66.50;100366.22;1689081;82;25739;-71
2021/07/13 00:20:29;;;;;;;22.75;15.18;;;;;;;19.67;66.67;100369.43;1694738;82;27552;-71
2021/07/13 00:22:59;;;;;;;21.45;15.08;;;;;;;19.67;66.71;100361.27;1674354;83;26362;-71
2021/07/13 00:25:29;;;;;;;23.65;16.73;;;;;;;19.65;66.78;100349.67;1688809;82;25776;-71
2021/07/13 00:27:56;;;;;;;21.73;15.43;;;;;;;19.63;66.83;100344.00;1692051;82;26746;-71
2021/07/13 00:30:25;;;;;;;27.73;17.25;;;;;;;19.59;67.04;100343.39;1689996;82;25824;-71
2021/07/13 00:32:54;;;;;;;23.32;16.15;;;;;;;19.58;67.05;100343.53;1683985;82;27700;-72
2021/07/13 00:35:20;;;;;;;20.75;15.32;;;;;;;19.55;67.18;100341.93;1684128;82;26497;-72
2021/07/13 00:37:50;;;;;;;23.57;15.85;;;;;;;19.53;67.23;100339.84;1687172;82;25754;-72
2021/07/13 00:40:20;;;;;;;28.77;17.32;;;;;;;19.50;67.32;100337.84;1698200;82;26227;-72
2021/07/13 00:42:50;;;;;;;22.22;16.73;;;;;;;19.48;67.42;100337.98;1688081;83;26579;-72
2021/07/13 00:45:17;;;;;;;30.07;18.67;;;;;;;19.48;67.49;100338.48;1675260;82;28170;-72
2021/07/13 00:47:49;;;;;;;22.75;15.68;;;;;;;19.42;67.58;100338.00;1685006;82;25753;-73
2021/07/13 00:50:19;;;;;;;28.30;16.57;;;;;;;19.41;67.73;100340.85;1684765;82;25781;-72
2021/07/13 00:52:47;;;;;;;21.95;16.62;;;;;;;19.40;67.78;100344.06;1687784;81;26044;-72
2021/07/13 00:55:15;;;;;;;22.45;16.62;;;;;;;19.37;67.89;100344.33;1685225;83;25780;-72
2021/07/13 00:57:41;;;;;;;24.72;17.02;;;;;;;19.34;67.98;100342.36;1673741;82;27632;-72
2021/07/13 01:00:12;;;;;;;23.32;15.63;;;;;;;19.30;68.03;100342.26;1675232;82;25821;-72
2021/07/13 01:02:39;;;;;;;21.82;16.07;;;;;;;19.30;68.19;100350.41;1680521;82;26608;-72
2021/07/13 01:05:16;;;;;;;26.05;15.53;;;;;;;19.30;68.24;100339.54;1686853;82;26725;-72
2021/07/13 01:08:11;;;;;;;27.25;17.62;;;;;;;19.30;68.27;100343.62;1686564;82;25727;-72
2021/07/13 01:11:12;;;;;;;19.87;16.60;;;;;;;19.23;68.29;100341.91;1689929;82;27464;-72
2021/07/13 01:13:50;;;;;;;25.55;16.93;;;;;;;19.19;68.42;100345.02;1664959;82;25857;-72
2021/07/13 01:16:27;;;;;;;21.23;16.40;;;;;;;19.14;68.53;100346.76;1678249;82;25860;-73
2021/07/13 01:19:17;;;;;;;23.92;16.15;;;;;;;19.12;68.64;100353.68;1674510;82;26114;-72
2021/07/13 01:21:57;;;;;;;27.25;16.95;;;;;;;19.10;68.67;100352.08;1670346;82;26082;-72
2021/07/13 01:25:07;;;;;;;28.57;16.77;;;;;;;19.06;68.85;100350.61;1668600;82;28144;-72
2021/07/13 01:27:47;;;;;;;22.60;16.87;;;;;;;19.06;68.91;100354.19;1662525;84;25891;-72
2021/07/13 01:30:31;;;;;;;31.27;17.37;;;;;;;19.02;68.99;100352.72;1666467;82;25908;-72
2021/07/13 01:33:13;;;;;;;25.48;17.52;;;;;;;19.00;69.06;100349.27;1672111;84;26118;-73
2021/07/13 01:35:54;;;;;;;22.87;17.50;;;;;;;19.00;69.23;100354.70;1685307;83;25999;-72
2021/07/13 01:38:29;;;;;;;21.73;17.50;;;;;;;18.96;69.26;100351.87;1689236;82;28474;-72
2021/07/13 01:41:00;;;;;;;22.95;16.70;;;;;;;18.96;69.42;100347.80;1669625;82;25901;-72
2021/07/13 01:43:30;;;;;;;26.02;16.93;;;;;;;18.96;69.45;100350.52;1683798;82;25788;-73
2021/07/13 01:45:58;;;;;;;26.42;16.67;;;;;;;18.94;69.49;100349.78;1694077;82;25937;-72
2021/07/13 01:48:30;;;;;;;20.92;16.82;;;;;;;18.90;69.53;100353.73;1679786;82;25753;-72
2021/07/13 01:50:58;;;;;;;24.75;16.70;;;;;;;18.87;69.62;100353.13;1691665;82;27400;-74
2021/07/13 01:53:29;;;;;;;23.45;17.42;;;;;;;18.82;69.71;100348.07;1692993;81;25776;-73
2021/07/13 01:55:57;;;;;;;25.72;16.35;;;;;;;18.79;69.81;100354.62;1684039;83;25769;-73
2021/07/13 01:58:27;;;;;;;26.73;17.62;;;;;;;18.77;69.91;100355.73;1688543;82;26172;-73
2021/07/13 02:01:05;;;;;;;25.75;16.67;;;;;;;18.75;69.99;100351.78;1686569;83;25804;-73
2021/07/13 02:03:33;;;;;;;23.25;16.50;;;;;;;18.76;70.09;100355.36;1671299;83;27545;-73
2021/07/13 02:06:01;;;;;;;23.00;16.32;;;;;;;18.74;70.07;100354.63;1687219;83;25752;-73
2021/07/13 02:08:28;;;;;;;22.37;16.10;;;;;;;18.71;70.21;100353.52;1675167;84;25790;-73
2021/07/13 02:10:55;;;;;;;26.15;16.97;;;;;;;18.70;70.27;100360.80;1694150;83;26202;-72
2021/07/13 02:13:22;;;;;;;22.50;16.23;;;;;;;18.68;70.27;100359.20;1695075;83;25913;-72
2021/07/13 02:15:48;;;;;;;27.35;16.30;;;;;;;18.64;70.41;100361.80;1692391;81;27437;-72
2021/07/13 02:18:16;;;;;;;22.27;15.90;;;;;;;18.61;70.43;100357.48;1661028;84;25827;-73
2021/07/13 02:20:44;;;;;;;21.65;16.40;;;;;;;18.59;70.53;100357.20;1699861;81;25790;-73
2021/07/13 02:23:14;;;;;;;21.95;17.23;;;;;;;18.56;70.62;100358.31;1689888;81;26449;-73
2021/07/13 02:25:43;;;;;;;25.80;16.00;;;;;;;18.57;70.67;100358.69;1702175;82;25874;-72
2021/07/13 02:28:29;;;;;;;26.77;16.85;;;;;;;18.54;70.67;100363.50;1706562;81;27504;-72
2021/07/13 02:31:03;;;;;;;22.20;15.70;;;;;;;18.48;70.76;100372.50;1678226;82;25732;-72
2021/07/13 02:33:50;;;;;;;24.18;16.17;;;;;;;18.47;70.91;100369.42;1697225;81;25755;-72
2021/07/13 02:36:22;;;;;;;28.42;16.80;;;;;;;18.46;70.98;100370.41;1693460;82;26588;-72
2021/07/13 02:38:50;;;;;;;22.40;16.42;;;;;;;18.46;71.00;100367.69;1651386;84;25859;-72
2021/07/13 02:41:18;;;;;;;22.50;15.60;;;;;;;18.46;71.05;100365.47;1700236;83;27387;-72
2021/07/13 02:43:46;;;;;;;24.55;15.35;;;;;;;18.44;71.08;100360.16;1683108;81;25831;-72
2021/07/13 02:46:14;;;;;;;22.95;15.75;;;;;;;18.42;71.14;100359.92;1703854;81;25713;-72
2021/07/13 02:48:44;;;;;;;23.40;15.53;;;;;;;18.40;71.15;100360.05;1662473;84;26803;-72
2021/07/13 02:51:13;;;;;;;30.10;16.70;;;;;;;18.39;71.22;100356.09;1708483;82;25819;-72
2021/07/13 02:53:41;;;;;;;23.38;15.18;;;;;;;18.39;71.25;100360.16;1672539;84;28888;-72
2021/07/13 02:56:08;;;;;;;21.30;14.33;;;;;;;18.39;71.37;100361.03;1681567;82;25996;-72
2021/07/13 02:58:37;;;;;;;25.27;15.45;;;;;;;18.39;71.36;100356.96;1694224;83;26320;-72
2021/07/13 03:01:05;;;;;;;25.12;16.00;;;;;;;18.39;71.42;100352.89;1676554;83;26102;-72
2021/07/13 03:03:35;;;;;;;20.43;15.43;;;;;;;18.38;71.42;100342.16;1682216;82;25780;-71
2021/07/13 03:06:04;;;;;;;21.80;15.55;;;;;;;18.36;71.43;100347.70;1694818;81;28163;-71
2021/07/13 03:08:30;;;;;;;24.18;15.08;;;;;;;18.33;71.45;100343.88;1697498;82;25817;-72
2021/07/13 03:10:58;;;;;;;24.80;14.83;;;;;;;18.31;71.56;100339.08;1691100;81;26577;-72
2021/07/13 03:13:26;;;;;;;21.42;14.93;;;;;;;18.31;71.52;100339.08;1703474;81;26165;-74
2021/07/13 03:15:55;;;;;;;20.75;15.38;;;;;;;18.30;71.64;100333.77;1698398;81;25787;-72
2021/07/13 03:18:23;;;;;;;25.40;15.32;;;;;;;18.31;71.65;100342.28;1705599;81;27452;-72
2021/07/13 03:20:52;;;;;;;24.23;14.95;;;;;;;18.30;71.60;100337.84;1670225;84;25722;-72
2021/07/13 03:23:21;;;;;;;21.57;15.78;;;;;;;18.28;71.71;100339.32;1678921;82;25870;-71
2021/07/13 03:25:50;;;;;;;33.60;14.75;;;;;;;18.28;71.73;100337.97;1694521;82;26097;-72
2021/07/13 03:28:20;;;;;;;20.80;14.93;;;;;;;18.28;71.72;100338.45;1705133;82;26511;-72
2021/07/13 03:30:48;;;;;;;30.43;14.98;;;;;;;18.27;71.75;100343.52;1694074;82;29340;-72
2021/07/13 03:33:17;;;;;;;22.55;14.75;;;;;;;18.24;71.82;100342.41;1697137;81;25934;-72
2021/07/13 03:35:44;;;;;;;24.60;14.80;;;;;;;18.24;71.85;100339.69;1695873;82;25799;-72
2021/07/13 03:38:11;;;;;;;21.07;15.45;;;;;;;18.25;71.83;100334.63;1715865;81;26739;-72
2021/07/13 03:40:38;;;;;;;20.40;14.98;;;;;;;18.24;71.86;100341.91;1695021;83;25786;-72
2021/07/13 03:43:04;;;;;;;22.10;14.58;;;;;;;18.26;72.00;100341.30;1686559;82;27472;-72
2021/07/13 03:45:30;;;;;;;20.27;12.98;;;;;;;18.31;72.06;100351.28;1695630;82;25810;-72
2021/07/13 03:47:59;;;;;;;19.73;13.48;;;;;;;18.36;72.05;100345.00;1691737;82;26530;-72
2021/07/13 03:50:31;;;;;;;21.05;14.07;;;;;;;18.39;72.05;100347.46;1700944;81;26111;-72
2021/07/13 03:52:59;;;;;;;19.10;12.68;;;;;;;18.42;71.98;100346.34;1699082;82;25815;-72
2021/07/13 03:55:26;;;;;;;25.57;14.63;;;;;;;18.43;72.09;100343.52;1692122;82;27536;-72
2021/07/13 03:57:53;;;;;;;22.30;13.35;;;;;;;18.46;72.06;100344.63;1692484;81;25867;-72
2021/07/13 04:00:27;;;;;;;22.73;14.05;;;;;;;18.47;72.02;100342.77;1705535;82;25759;-72
2021/07/13 04:02:53;;;;;;;18.15;12.55;;;;;;;18.46;71.95;100338.33;1682981;81;26072;-72
2021/07/13 04:05:21;;;;;;;19.73;12.93;;;;;;;18.44;72.06;100333.03;1688356;81;25807;-72
2021/07/13 04:07:50;;;;;;;21.87;13.10;;;;;;;18.47;72.09;100330.56;1700009;82;27377;-72
2021/07/13 04:10:18;;;;;;;19.17;13.20;;;;;;;18.50;72.09;100329.81;1687276;83;25668;-72
2021/07/13 04:12:44;;;;;;;25.50;13.45;;;;;;;18.56;72.11;100336.59;1688105;83;25824;-72
2021/07/13 04:15:13;;;;;;;21.52;12.13;;;;;;;18.60;72.08;100337.21;1706216;81;26110;-72
2021/07/13 04:17:40;;;;;;;21.25;12.73;;;;;;;18.65;72.15;100330.95;1696914;82;26415;-72
2021/07/13 04:20:10;;;;;;;20.97;12.65;;;;;;;18.70;72.05;100339.08;1697532;81;28555;-71
2021/07/13 04:22:37;;;;;;;17.90;12.00;;;;;;;18.72;72.02;100333.52;1699984;81;26573;-72
2021/07/13 04:25:08;;;;;;;21.75;12.47;;;;;;;18.72;71.99;100342.53;1697267;81;25856;-72
2021/07/13 04:27:36;;;;;;;16.05;11.48;;;;;;;18.74;72.00;100345.13;1703333;81;26426;-72
2021/07/13 04:30:05;;;;;;;25.82;12.60;;;;;;;18.78;72.03;100354.74;1690804;81;26415;-72
2021/07/13 04:32:33;;;;;;;22.00;13.13;;;;;;;18.78;71.99;100349.31;1696235;81;27673;-72
2021/07/13 04:34:59;;;;;;;18.85;10.82;;;;;;;18.83;72.01;100354.36;1697068;81;25879;-71
2021/07/13 04:37:26;;;;;;;18.98;12.23;;;;;;;18.88;71.97;100357.07;1696918;81;25796;-72
2021/07/13 04:39:54;;;;;;;23.27;11.83;;;;;;;18.90;71.93;100352.87;1704537;81;26795;-71
2021/07/13 04:42:20;;;;;;;19.62;11.85;;;;;;;18.94;71.94;100352.48;1704283;81;25827;-71
2021/07/13 04:44:47;;;;;;;16.67;11.30;;;;;;;18.99;71.93;100354.33;1690477;81;28191;-72
2021/07/13 04:47:15;;;;;;;17.52;11.60;;;;;;;19.04;71.80;100350.73;1702704;81;25943;-71
2021/07/13 04:49:43;;;;;;;18.50;10.38;;;;;;;19.02;71.78;100363.59;1697593;81;25727;-71
2021/07/13 04:52:08;;;;;;;15.48;10.55;;;;;;;19.04;71.83;100367.03;1700236;81;25990;-71
2021/07/13 04:54:36;;;;;;;16.15;11.12;;;;;;;19.10;71.80;100367.89;1705296;81;25717;-71
2021/07/13 04:57:04;;;;;;;18.70;11.85;;;;;;;19.16;71.79;100363.80;1696919;81;27514;-70
2021/07/13 04:59:30;;;;;;;20.23;11.25;;;;;;;19.22;71.74;100355.63;1694339;81;26289;-70
2021/07/13 05:01:57;;;;;;;16.52;9.80;;;;;;;19.26;71.70;100354.38;1692612;81;25884;-71
2021/07/13 05:04:24;;;;;;;16.97;10.50;;;;;;;19.30;71.66;100353.98;1687723;81;26166;-68
2021/07/13 05:06:50;;;;;;;19.10;9.70;;;;;;;19.38;71.61;100350.62;1686579;81;25907;-70
2021/07/13 05:09:18;;;;;;;22.52;9.50;;;;;;;19.43;71.53;100349.24;1652739;83;27581;-69
2021/07/13 05:11:44;;;;;;;16.90;9.15;;;;;;;19.48;71.50;100346.63;1659107;83;26377;-69
2021/07/13 05:14:10;;;;;;;31.50;9.65;;;;;;;19.52;71.37;100346.27;1643402;83;25721;-69
2021/07/13 05:16:36;;;;;;;19.42;9.18;;;;;;;19.55;71.27;100346.51;1664911;83;26099;-67
2021/07/13 05:19:02;;;;;;;15.40;9.30;;;;;;;19.60;71.24;100345.13;1661323;83;25788;-68
2021/07/13 05:21:29;;;;;;;25.70;9.55;;;;;;;19.64;71.12;100339.78;1664941;84;27568;-69
2021/07/13 05:23:58;;;;;;;16.15;9.15;;;;;;;19.69;71.10;100340.25;1656957;84;25834;-69
2021/07/13 05:26:28;;;;;;;13.03;8.33;;;;;;;19.75;71.02;100339.72;1660670;83;25621;-77
2021/07/13 05:29:02;;;;;;;17.98;9.05;;;;;;;19.82;71.01;100340.05;1671960;83;25628;-69
2021/07/13 05:31:30;;;;;;;18.10;9.38;;;;;;;19.93;70.98;100337.27;1652923;84;25775;-70
2021/07/13 05:33:58;;;;;;;14.25;8.90;;;;;;;20.04;70.90;100333.61;1663734;83;27496;-70
2021/07/13 05:36:26;;;;;;;13.28;8.98;;;;;;;20.14;70.76;100322.27;1664589;83;26357;-69
2021/07/13 05:38:53;;;;;;;13.72;10.08;;;;;;;20.18;70.65;100312.84;1713459;81;25798;-69
2021/07/13 05:41:26;;;;;;;17.05;9.75;;;;;;;20.24;70.50;100319.11;1697621;81;26064;-69
2021/07/13 05:43:57;;;;;;;76.87;21.42;;;;;;;20.28;70.46;100320.55;1664492;83;26771;-68
2021/07/13 05:46:25;;;;;;;19.23;9.28;;;;;;;20.34;70.44;100322.73;1628448;86;27357;-69
2021/07/13 05:48:52;;;;;;;14.73;10.05;;;;;;;20.41;70.33;100328.02;1641229;86;26497;-68
2021/07/13 05:51:18;;;;;;;14.73;8.40;;;;;;;20.48;70.29;100319.30;1646133;84;25942;-68
2021/07/13 05:53:44;;;;;;;21.62;11.18;;;;;;;20.55;70.23;100325.92;1678893;82;26577;-68
2021/07/13 05:56:11;;;;;;;16.25;9.05;;;;;;;20.61;70.11;100329.45;1694868;81;25781;-66
2021/07/13 05:58:39;;;;;;;18.12;8.48;;;;;;;20.66;70.02;100326.68;1666200;83;27668;-68
2021/07/13 06:01:06;;;;;;;10.40;7.80;;;;;;;20.74;69.98;100327.34;1668102;83;25833;-68
2021/07/13 06:03:36;;;;;;;15.20;7.92;;;;;;;20.79;69.86;100326.43;1650639;84;26160;-75
2021/07/13 06:06:03;;;;;;;20.32;8.68;;;;;;;20.85;69.81;100332.64;1653698;83;26086;-73
2021/07/13 06:08:29;;;;;;;17.57;8.18;;;;;;;20.91;69.69;100337.53;1686001;81;25804;-69
2021/07/13 06:10:55;;;;;;;11.65;7.87;;;;;;;20.96;69.61;100338.48;1679293;83;27605;-69
2021/07/13 06:13:23;;;;;;;14.00;8.58;;;;;;;21.00;69.52;100329.88;1703498;81;25753;-68
2021/07/13 06:15:50;;;;;;;13.90;8.30;;;;;;;21.05;69.43;100332.19;1696059;82;36207;-72
2021/07/13 06:18:20;;;;;;;14.70;8.10;;;;;;;21.12;69.37;100325.67;1665440;83;26758;-69
2021/07/13 06:20:47;;;;;;;10.08;7.80;;;;;;;21.16;69.27;100320.30;1666148;83;25776;-68
2021/07/13 06:23:14;;;;;;;15.60;7.78;;;;;;;21.22;69.18;100327.44;1696859;83;27458;-70
2021/07/13 06:25:42;;;;;;;13.55;8.58;;;;;;;21.27;69.06;100319.69;1695273;82;26157;-70
2021/07/13 06:28:12;;;;;;;124.22;45.45;;;;;;;21.32;68.98;100315.17;1670338;83;26705;-69
2021/07/13 06:30:42;;;;;;;47.60;19.85;;;;;;;21.36;68.83;100322.06;1646732;83;26062;-74
2021/07/13 06:33:09;;;;;;;43.68;18.90;;;;;;;21.39;68.76;100314.45;1647346;84;26479;-67
2021/07/13 06:35:35;;;;;;;34.38;12.93;;;;;;;21.47;68.65;100308.28;1652686;83;27429;-70
2021/07/13 06:38:05;;;;;;;19.23;9.90;;;;;;;21.53;68.60;100311.80;1648171;84;25780;-72
2021/07/13 06:40:33;;;;;;;23.23;8.87;;;;;;;21.60;68.47;100310.71;1665814;83;25749;-73
2021/07/13 06:42:59;;;;;;;15.58;7.80;;;;;;;21.67;68.36;100306.39;1667988;83;26220;-72
2021/07/13 06:45:26;;;;;;;11.65;6.85;;;;;;;21.83;68.03;100311.25;1666678;83;25917;-74
2021/07/13 06:47:55;;;;;;;14.60;7.83;;;;;;;21.83;68.03;100311.25;1667490;84;25811;-75
2021/07/13 06:50:24;;;;;;;20.50;7.42;;;;;;;21.87;68.22;100285.39;1694950;83;26446;-74
2021/07/13 06:52:51;;;;;;;11.53;7.45;;;;;;;21.87;68.22;100285.39;1681900;81;25911;-74
2021/07/13 06:55:19;;;;;;;12.35;7.62;;;;;;;22.07;67.83;100309.43;1645477;83;26225;-75
2021/07/13 06:57:47;;;;;;;13.45;6.92;;;;;;;22.13;67.72;100309.70;1650722;84;25784;-73
2021/07/13 07:00:15;;;;;;;10.98;7.17;;;;;;;22.18;67.58;100310.11;1689705;83;27459;-76
2021/07/13 07:02:41;;;;;;;17.90;7.53;;;;;;;22.24;67.52;100309.52;1679045;83;26029;-75
2021/07/13 07:05:09;;;;;;;14.30;7.85;;;;;;;22.32;67.43;100290.52;1662098;83;25713;-73
2021/07/13 07:07:48;;;;;;;10.13;6.80;;;;;;;22.41;67.35;100296.94;1706461;81;25998;-73
2021/07/13 07:10:17;;;;;;;14.65;7.95;;;;;;;22.40;67.19;100278.84;1688949;83;25881;-74
2021/07/13 07:12:44;;;;;;;16.90;7.30;;;;;;;22.45;67.05;100282.48;1703479;81;27562;-74
2021/07/13 07:15:12;;;;;;;16.77;8.03;;;;;;;22.56;67.17;100288.59;1712839;81;25906;-74
2021/07/13 07:17:49;;;;;;;12.43;7.33;;;;;;;22.62;66.89;100289.36;1707026;81;26285;-74
2021/07/13 07:20:19;;;;;;;15.38;8.08;;;;;;;22.67;66.75;100285.66;1653187;83;26013;-73
2021/07/13 07:22:47;;;;;;;19.87;10.27;;;;;;;22.72;66.62;100286.57;1667393;83;25816;-72
2021/07/13 07:25:14;;;;;;;22.05;13.10;;;;;;;22.77;66.50;100286.11;1680454;81;27556;-71
2021/07/13 07:27:46;;;;;;;16.17;10.78;;;;;;;22.82;66.45;100290.13;1688468;81;25908;-71
2021/07/13 07:30:16;;;;;;;16.17;8.70;;;;;;;22.90;66.31;100283.39;1645979;84;25710;-72
2021/07/13 07:32:45;;;;;;;;;;;;;;;22.95;66.18;100277.46;1657538;84;26486;-72
2021/07/13 07:35:19;;;;;;;12.00;7.35;;;;;;;22.99;65.99;100279.73;1637677;85;25850;-72
2021/07/13 07:37:46;;;;;;;12.18;7.60;;;;;;;23.03;66.01;100277.55;1657209;83;28313;-72
2021/07/13 07:40:17;;;;;;;22.05;7.05;;;;;;;23.12;65.95;100277.98;1642299;85;25783;-64
2021/07/13 07:42:49;;;;;;;10.85;7.00;;;;;;;23.21;65.82;100277.05;1668397;84;26416;-63
2021/07/13 07:45:17;;;;;;;15.08;7.00;;;;;;;23.33;65.73;100276.30;1642727;83;26397;-63
2021/07/13 07:47:43;;;;;;;12.68;6.70;;;;;;;23.43;65.64;100275.67;1689958;82;25691;-63
2021/07/13 07:50:14;;;;;;;11.78;8.18;;;;;;;23.53;65.48;100276.44;1701444;83;29664;-63
2021/07/13 07:52:41;;;;;;;27.13;8.23;;;;;;;23.61;65.32;100271.58;1695621;82;25706;-64
2021/07/13 07:55:11;;;;;;;16.93;7.22;;;;;;;23.67;65.20;100270.94;1671176;82;25792;-64
2021/07/13 07:57:37;;;;;;;13.90;7.03;;;;;;;23.76;65.08;100274.08;1686083;82;26355;-63
2021/07/13 08:00:09;;;;;;;10.98;6.80;;;;;;;23.84;64.90;100265.06;1686052;84;25791;-63
2021/07/13 08:02:40;;;;;;;11.12;6.97;;;;;;;23.76;64.70;100243.12;1681770;83;25832;-63
2021/07/13 08:05:11;;;;;;;14.33;7.20;;;;;;;23.99;64.57;100259.34;1678389;82;25812;-63
2021/07/13 08:07:39;;;;;;;12.47;7.08;;;;;;;24.07;64.38;100255.80;1682744;83;25810;-63
2021/07/13 08:10:08;;;;;;;11.48;6.58;;;;;;;24.10;64.21;100256.33;1688483;82;26038;-62
2021/07/13 08:12:34;;;;;;;14.53;6.80;;;;;;;24.18;64.10;100260.99;1686047;82;25724;-63
2021/07/13 08:15:02;;;;;;;11.65;7.12;;;;;;;24.25;63.99;100253.84;1675809;83;27579;-63
2021/07/13 08:17:28;;;;;;;11.30;7.47;;;;;;;24.32;63.89;100254.94;1676604;82;26065;-63
2021/07/13 08:19:54;;;;;;;12.60;7.62;;;;;;;24.40;63.77;100260.95;1660829;82;25854;-63
2021/07/13 08:22:20;;;;;;;13.30;7.42;;;;;;;24.47;63.62;100256.53;1686866;82;26108;-63
2021/07/13 08:24:47;;;;;;;12.43;8.18;;;;;;;24.53;63.52;100259.98;1654556;83;25919;-63
2021/07/13 08:27:15;;;;;;;9.63;6.92;;;;;;;24.59;63.40;100257.44;1676299;83;26791;-63
2021/07/13 08:29:42;;;;;;;9.88;7.33;;;;;;;24.67;63.28;100253.02;1674682;82;26498;-63
2021/07/13 08:32:09;;;;;;;12.55;7.12;;;;;;;24.73;63.13;100251.83;1677874;82;26373;-63
2021/07/13 08:34:36;;;;;;;12.85;8.18;;;;;;;24.77;63.03;100243.62;1679419;82;26074;-62
2021/07/13 08:37:05;;;;;;;9.95;8.05;;;;;;;24.84;62.91;100247.41;1681597;83;25739;-63
2021/07/13 08:39:33;;;;;;;11.95;7.05;;;;;;;24.93;62.77;100245.02;1675368;82;25737;-63
2021/07/13 08:42:02;;;;;;;18.07;7.95;;;;;;;25.00;62.62;100246.61;1683353;82;25683;-63
2021/07/13 08:44:31;;;;;;;16.23;8.35;;;;;;;25.08;62.48;100248.51;1679310;82;25355;-63
2021/07/13 08:46:59;;;;;;;11.57;7.90;;;;;;;25.12;62.30;100247.14;1674662;83;28200;-63
2021/07/13 08:49:27;;;;;;;18.15;8.50;;;;;;;25.18;62.22;100254.69;1690601;82;25693;-63
2021/07/13 08:51:53;;;;;;;11.57;9.68;;;;;;;25.23;62.11;100249.03;1667043;82;27486;-63
2021/07/13 08:54:19;;;;;;;12.33;8.23;;;;;;;25.27;61.93;100253.67;1679563;83;25812;-62
2021/07/13 08:56:46;;;;;;;12.68;7.62;;;;;;;25.34;61.85;100253.33;1673537;83;25918;-61
2021/07/13 08:59:15;;;;;;;12.28;8.10;;;;;;;25.43;61.70;100255.56;1677770;83;26401;-63
2021/07/13 09:01:41;;;;;;;14.05;8.43;;;;;;;25.51;61.50;100251.44;1669412;83;25861;-62
2021/07/13 09:04:09;;;;;;;11.18;7.17;;;;;;;25.58;61.33;100246.12;1666730;83;28071;-65
2021/07/13 09:07:01;;;;;;;13.53;7.55;;;;;;;25.63;61.13;100243.72;1675869;83;26570;-65
2021/07/13 09:09:32;;;;;;;9.45;7.45;;;;;;;25.67;60.95;100245.97;1666161;82;25862;-65
2021/07/13 09:12:17;;;;;;;19.35;7.45;;;;;;;25.70;60.82;100242.88;1676134;83;26487;-65
2021/07/13 09:15:04;;;;;;;9.30;7.00;;;;;;;25.76;60.60;100240.81;1668175;83;25790;-66
2021/07/13 09:17:45;;;;;;;17.27;7.33;;;;;;;25.80;60.41;100241.32;1665446;83;28183;-64
2021/07/13 09:20:27;;;;;;;10.77;8.07;;;;;;;25.82;60.22;100230.50;1668721;83;25815;-64
2021/07/13 09:23:03;;;;;;;20.27;7.43;;;;;;;25.88;60.12;100231.69;1657968;83;25780;-65
2021/07/13 09:25:44;;;;;;;15.60;7.35;;;;;;;25.85;59.92;100218.31;1665667;83;26017;-64
2021/07/13 09:28:17;;;;;;;17.70;7.80;;;;;;;26.01;59.75;100238.84;1658564;83;26618;-64
2021/07/13 09:30:59;;;;;;;13.05;7.28;;;;;;;26.05;59.58;100231.95;1662473;83;28003;-64
2021/07/13 09:33:34;;;;;;;9.00;7.10;;;;;;;26.10;59.39;100221.81;1666150;83;25744;-64
2021/07/13 09:36:08;;;;;;;8.55;6.90;;;;;;;26.12;59.22;100223.35;1667879;83;25824;-64
2021/07/13 09:38:42;;;;;;;10.23;6.70;;;;;;;26.18;59.06;100225.91;1674898;83;26113;-64
2021/07/13 09:41:18;;;;;;;14.65;6.75;;;;;;;26.26;58.93;100219.52;1669882;83;25991;-64
2021/07/13 09:43:52;;;;;;;7.20;6.50;;;;;;;26.33;58.77;100218.67;1676502;83;27510;-64
2021/07/13 09:46:42;;;;;;;10.95;6.62;;;;;;;26.39;58.54;100222.59;1664627;83;25837;-64
2021/07/13 09:49:24;;;;;;;10.03;7.28;;;;;;;26.45;58.43;100224.63;1666371;82;25785;-65
2021/07/13 09:52:03;;;;;;;9.75;6.53;;;;;;;26.52;58.15;100224.25;1664587;83;26052;-65
2021/07/13 09:54:38;;;;;;;10.18;6.22;;;;;;;26.58;57.91;100218.55;1648084;82;26212;-65
2021/07/13 09:57:22;;;;;;;6.70;6.00;;;;;;;26.64;57.74;100213.19;1636807;85;27486;-65
2021/07/13 09:59:56;;;;;;;7.87;6.15;;;;;;;26.70;57.52;100208.86;1673606;84;25667;-65
2021/07/13 10:02:27;;;;;;;11.85;5.78;;;;;;;26.77;57.23;100213.45;1678897;83;25793;-65
2021/07/13 10:04:50;;;;;;;12.40;5.78;;;;;;;26.82;57.07;100215.14;1661938;83;26699;-65
2021/07/13 10:07:22;;;;;;;10.90;6.15;;;;;;;26.88;56.82;100212.70;1672037;83;25774;-65
2021/07/13 10:09:51;;;;;;;8.78;5.70;;;;;;;26.95;56.67;100218.66;1658575;83;27463;-65
2021/07/13 10:12:22;;;;;;;6.62;6.00;;;;;;;27.05;56.44;100215.70;1660617;83;25856;-65
2021/07/13 10:14:54;;;;;;;9.28;6.15;;;;;;;27.11;56.26;100219.95;1661583;83;34855;-65
2021/07/13 10:17:22;;;;;;;6.40;5.80;;;;;;;27.16;56.02;100213.37;1661633;83;26096;-66
2021/07/13 10:19:52;;;;;;;17.85;6.10;;;;;;;27.19;55.92;100212.16;1666878;83;26328;-66
2021/07/13 10:22:22;;;;;;;15.48;6.70;;;;;;;27.33;55.86;100210.49;1643657;85;27536;-65
2021/07/13 10:24:56;;;;;;;14.95;6.83;;;;;;;27.45;55.67;100211.23;1674926;83;26892;-66
2021/07/13 10:27:35;;;;;;;25.77;7.60;;;;;;;27.58;55.40;100211.13;1661720;83;25842;-66
2021/07/13 10:30:11;;;;;;;17.52;7.75;;;;;;;27.65;55.26;100210.22;1660681;84;27106;-61
2021/07/13 10:32:41;;;;;;;10.53;6.58;;;;;;;27.75;55.07;100208.05;1671574;83;25706;-64
2021/07/13 10:35:31;;;;;;;17.15;6.90;;;;;;;27.85;54.77;100194.00;1654859;82;27199;-65
2021/07/13 10:38:21;;;;;;;28.12;7.22;;;;;;;28.00;54.67;100210.02;1665427;83;26545;-65
2021/07/13 10:40:49;;;;;;;8.65;6.30;;;;;;;28.19;54.51;100200.84;1666326;83;25815;-65
2021/07/13 10:43:22;;;;;;;16.87;6.37;;;;;;;28.37;54.32;100200.81;1656874;83;26100;-64
2021/07/13 10:46:07;;;;;;;14.13;5.58;;;;;;;28.43;54.04;100198.66;1672773;83;25857;-65
2021/07/13 10:48:35;;;;;;;12.55;6.25;;;;;;;28.51;53.76;100200.45;1660603;83;27499;-62
2021/07/13 10:51:07;;;;;;;31.57;7.62;;;;;;;28.66;53.57;100195.72;1674933;84;25783;-65
2021/07/13 10:53:45;;;;;;;36.50;9.13;;;;;;;28.84;53.31;100191.19;1663214;83;25692;-64
2021/07/13 10:56:26;;;;;;;10.53;7.15;;;;;;;28.96;53.04;100191.52;1680121;83;26874;-64
2021/07/13 10:58:55;;;;;;;11.97;6.47;;;;;;;28.97;52.55;100194.61;1674011;83;25941;-62
2021/07/13 11:01:29;;;;;;;7.85;5.97;;;;;;;28.87;52.26;100190.80;1665567;82;28207;-62
2021/07/13 11:04:02;;;;;;;11.20;5.72;;;;;;;28.94;52.24;100186.72;1660283;82;25814;-63
2021/07/13 11:06:50;;;;;;;9.18;5.67;;;;;;;29.10;51.87;100193.36;1665645;83;25801;-63
2021/07/13 11:09:25;;;;;;;6.67;5.35;;;;;;;29.24;51.76;100188.30;1676503;84;26987;-62
2021/07/13 11:11:55;;;;;;;9.68;5.83;;;;;;;29.34;51.59;100183.28;1670529;84;25783;-62
2021/07/13 11:14:25;;;;;;;9.78;5.30;;;;;;;29.38;51.31;100180.98;1660574;82;27409;-64
2021/07/13 11:16:51;;;;;;;17.80;6.90;;;;;;;29.36;51.06;100179.80;1677655;84;25738;-63
2021/07/13 11:19:18;;;;;;;8.65;6.28;;;;;;;29.45;51.00;100178.30;1674141;83;26384;-63
2021/07/13 11:21:51;;;;;;;35.00;6.47;;;;;;;29.51;50.70;100174.75;1673472;83;26088;-64
2021/07/13 11:24:23;;;;;;;10.13;5.30;;;;;;;29.57;50.46;100167.04;1667836;84;26390;-64
2021/07/13 11:26:55;;;;;;;12.18;5.53;;;;;;;29.69;50.20;100167.66;1681582;83;28333;-64
2021/07/13 11:29:26;;;;;;;13.10;5.10;;;;;;;29.76;49.87;100166.85;1666279;84;25760;-63